^^
Station Historical Data
Daily Summary for March 12, 2017 Units:  English    Metric   Both
« Previous Day
Next Day »
Daily Weekly Monthly Yearly Custom
  High: Low: Average:
Temperature: 27.8 °F 15.9 °F 21.4 °F
Dew Point: 8.1 °F 2.6 °F 5 °F
Humidity: 59% 41% 49%
Wind Speed: 8.0mph 1.0mph 2.8mph
Wind Gust: 20.0mph - -
Wind- - SSW
Pressure: 30.43 in 30.28 in -
Precipitation: 0.00 in    
Historical Graphs
 
 
Tabular Data for March 12, 2017
Time Temperature Dew Point Pressure Wind Wind Speed Wind Gust Humidity Rainfall Rate (Hourly) Conditions
00:00 18.8 °F 6.1 °F 30.28 in West 1.0 mph 17.0 mph 57% 0.00 in FEW
00:15 18.7 °F 6.0 °F 30.28 in SSW 3.0 mph 13.0 mph 57% 0.00 in FEW
00:30 18.6 °F 6.3 °F 30.28 in South 1.0 mph 9.0 mph 58% 0.00 in FEW
00:45 18.6 °F 6.3 °F 30.28 in SW 3.0 mph 9.0 mph 58% 0.00 in FEW
01:00 18.5 °F 6.2 °F 30.28 in SW 8.0 mph 14.0 mph 58% 0.00 in FEW
03:15 18.2 °F 5.9 °F 30.29 in SSW 1.0 mph 15.0 mph 58% 0.00 in FEW
03:30 18.2 °F 5.9 °F 30.29 in WNW 3.0 mph 12.0 mph 58% 0.00 in FEW
03:45 18.1 °F 6.2 °F 30.29 in SSW 2.0 mph 10.0 mph 59% 0.00 in FEW
04:00 18.1 °F 5.4 °F 30.29 in SSE 2.0 mph 14.0 mph 57% 0.00 in FEW
04:15 18.1 °F 5.4 °F 30.29 in WSW 6.0 mph 20.0 mph 57% 0.00 in SCT
04:30 17.9 °F 5.2 °F 30.30 in NW 3.0 mph 15.0 mph 57% 0.00 in SCT
04:45 17.8 °F 4.7 °F 30.30 in NW 5.0 mph 13.0 mph 56% 0.00 in SCT
05:00 17.5 °F 4.1 °F 30.29 in ESE 2.0 mph 12.0 mph 55% 0.00 in SCT
05:15 17.5 °F 4.1 °F 30.30 in NE 3.0 mph 15.0 mph 55% 0.00 in SCT
05:30 17.4 °F 3.6 °F 30.31 in ENE 3.0 mph 15.0 mph 54% 0.00 in SCT
05:45 17.1 °F 2.9 °F 30.31 in NNE 3.0 mph 15.0 mph 53% 0.00 in SCT
06:00 16.9 °F 3.5 °F 30.31 in NW 2.0 mph 14.0 mph 55% 0.00 in SCT
06:15 16.7 °F 3.7 °F 30.31 in NNE 1.0 mph 5.0 mph 56% 0.00 in SCT
06:30 16.3 °F 3.3 °F 30.31 in North 1.0 mph 6.0 mph 56% 0.00 in SCT
06:45 16.2 °F 3.6 °F 30.31 in NNW 1.0 mph 6.0 mph 57% 0.00 in SCT
07:00 16.0 °F 3.4 °F 30.31 in NNW 1.0 mph 6.0 mph 57% 0.00 in SCT
07:15 15.9 °F 3.3 °F 30.31 in North 2.0 mph 7.0 mph 57% 0.00 in CLR
07:30 15.9 °F 3.0 °F 30.32 in NNW 1.0 mph 12.0 mph 56% 0.00 in CLR
07:45 16.0 °F 3.0 °F 30.32 in NNW 3.0 mph 12.0 mph 56% 0.00 in CLR
08:00 16.0 °F 3.4 °F 30.32 in NE 1.0 mph 8.0 mph 57% 0.00 in CLR
08:15 16.0 °F 3.5 °F 30.33 in WSW 1.0 mph 6.0 mph 57% 0.00 in CLR
08:30 16.2 °F 3.6 °F 30.33 in NNE 1.0 mph 9.0 mph 57% 0.00 in CLR
08:45 16.7 °F 4.1 °F 30.33 in WSW 1.0 mph 8.0 mph 57% 0.00 in CLR
09:00 17.0 °F 4.4 °F 30.33 in NNW 1.0 mph 16.0 mph 57% 0.00 in CLR
09:15 17.9 °F 4.4 °F 30.33 in SW 1.0 mph 9.0 mph 55% 0.00 in FEW
09:30 18.7 °F 4.4 °F 30.33 in NNW 2.0 mph 15.0 mph 53% 0.00 in FEW
09:45 19.4 °F 4.2 °F 30.33 in West 3.0 mph 14.0 mph 51% 0.00 in FEW
10:00 19.8 °F 5.4 °F 30.33 in NW 1.0 mph 13.0 mph 53% 0.00 in FEW
10:15 20.3 °F 4.6 °F 30.33 in NNW 1.0 mph 16.0 mph 50% 0.00 in FEW
10:30 21.3 °F 5.1 °F 30.33 in SSW 3.0 mph 10.0 mph 49% 0.00 in FEW
10:45 21.2 °F 5.0 °F 30.33 in NW 2.0 mph 13.0 mph 49% 0.00 in FEW
13:45 26.7 °F 7.6 °F 30.30 in SW 5.0 mph 12.0 mph 44% 0.00 in FEW
14:00 26.1 °F 6.1 °F 30.30 in WSW 6.0 mph 12.0 mph 42% 0.00 in FEW
14:15 26.6 °F 8.1 °F 30.29 in SW 3.0 mph 16.0 mph 45% 0.00 in SCT
14:30 27.4 °F 7.2 °F 30.29 in West 5.0 mph 14.0 mph 42% 0.00 in SCT
14:45 27.4 °F 7.8 °F 30.29 in WSW 2.0 mph 12.0 mph 43% 0.00 in SCT
15:00 27.6 °F 8.0 °F 30.29 in North 3.0 mph 12.0 mph 43% 0.00 in SCT
15:15 27.1 °F 7.5 °F 30.29 in NNW 3.0 mph 12.0 mph 43% 0.00 in SCT
15:30 27.2 °F 7.6 °F 30.29 in West 2.0 mph 12.0 mph 43% 0.00 in SCT
15:45 26.8 °F 6.7 °F 30.30 in WNW 2.0 mph 12.0 mph 42% 0.00 in SCT
16:00 26.9 °F 6.8 °F 30.30 in North 3.0 mph 13.0 mph 42% 0.00 in SCT
16:15 27.2 °F 7.6 °F 30.30 in WSW 2.0 mph 13.0 mph 43% 0.00 in SCT
16:30 27.8 °F 7.7 °F 30.29 in SW 5.0 mph 13.0 mph 42% 0.00 in SCT
16:45 27.3 °F 6.7 °F 30.30 in SW 7.0 mph 13.0 mph 41% 0.00 in SCT
17:00 27.1 °F 6.5 °F 30.30 in West 5.0 mph 15.0 mph 41% 0.00 in SCT
17:15 26.9 °F 6.3 °F 30.30 in SSW 5.0 mph 14.0 mph 41% 0.00 in SCT
17:30 27.3 °F 7.2 °F 30.31 in WNW 1.0 mph 16.0 mph 42% 0.00 in SCT
17:45 26.9 °F 6.3 °F 30.31 in WNW 6.0 mph 14.0 mph 41% 0.00 in SCT
18:00 26.7 °F 6.1 °F 30.31 in NNW 5.0 mph 16.0 mph 41% 0.00 in SCT
18:15 26.4 °F 5.8 °F 30.32 in West 5.0 mph 17.0 mph 41% 0.00 in FEW
18:30 26.4 °F 6.4 °F 30.32 in North 2.0 mph 12.0 mph 42% 0.00 in FEW
18:45 25.9 °F 5.4 °F 30.33 in WSW 3.0 mph 12.0 mph 41% 0.00 in FEW
19:00 24.9 °F 5.0 °F 30.33 in ENE 2.0 mph 12.0 mph 42% 0.00 in FEW
19:15 24.5 °F 4.7 °F 30.34 in NW 5.0 mph 12.0 mph 42% 0.00 in CLR
19:30 24.3 °F 5.0 °F 30.35 in NE 6.0 mph 14.0 mph 43% 0.00 in CLR
19:45 23.9 °F 5.1 °F 30.36 in NE 2.0 mph 14.0 mph 44% 0.00 in CLR
20:15 23.3 °F 5.1 °F 30.38 in NE 1.0 mph 14.0 mph 45% 0.00 in CLR
20:30 23.1 °F 4.4 °F 30.39 in NNE 2.0 mph 13.0 mph 44% 0.00 in CLR
20:45 22.9 °F 4.7 °F 30.39 in NW 5.0 mph 13.0 mph 45% 0.00 in CLR
21:00 22.6 °F 4.4 °F 30.40 in North 2.0 mph 12.0 mph 45% 0.00 in CLR
21:15 22.5 °F 3.8 °F 30.41 in NE 2.0 mph 12.0 mph 44% 0.00 in CLR
21:30 22.2 °F 3.6 °F 30.40 in NNE 3.0 mph 7.0 mph 44% 0.00 in CLR
21:45 21.9 °F 3.3 °F 30.40 in NNE 1.0 mph 14.0 mph 44% 0.00 in CLR
22:00 21.7 °F 2.6 °F 30.41 in NNW 1.0 mph 14.0 mph 43% 0.00 in CLR
22:15 21.5 °F 2.9 °F 30.41 in ENE 2.0 mph 18.0 mph 44% 0.00 in CLR
22:30 21.3 °F 2.7 °F 30.42 in NNE 3.0 mph 15.0 mph 44% 0.00 in CLR
22:45 21.1 °F 2.6 °F 30.41 in NNE 3.0 mph 14.0 mph 44% 0.00 in CLR
23:00 20.9 °F 2.9 °F 30.42 in North 6.0 mph 12.0 mph 45% 0.00 in CLR
23:15 20.8 °F 3.2 °F 30.41 in North 1.0 mph 17.0 mph 46% 0.00 in CLR
23:30 20.5 °F 3.4 °F 30.42 in North 2.0 mph 14.0 mph 47% 0.00 in CLR
23:45 20.4 °F 3.3 °F 30.43 in North 1.0 mph 14.0 mph 47% 0.00 in CLR
TarryTown NY Weather
Compliments of Weather Underground - 1.25 mb